Time,TemperatureF,DewpointF,PressureIn,WindDirection,WindDirectionDegrees,WindSpeedMPH,WindSpeedGustMPH,Humidity,HourlyPrecipIn,Conditions,Clouds,dailyrainin,SoftwareType,DateUTC
2013-10-04 00:03:00,34.8,24.0,32.42,NNW,338,3.0,6.0,65,0.00,,,0.00,weatherlink.com 1.10,2013-10-04 06:03:00,
2013-10-04 00:18:00,35.1,24.0,32.42,NW,320,7.0,10.0,63,0.00,,,0.00,weatherlink.com 1.10,2013-10-04 06:18:00,
2013-10-04 00:33:00,35.4,23.0,32.41,WNW,300,0.0,5.0,62,0.00,,,0.00,weatherlink.com 1.10,2013-10-04 06:33:00,
2013-10-04 00:48:00,35.3,23.0,32.42,NNW,333,4.0,6.0,62,0.00,,,0.00,weatherlink.com 1.10,2013-10-04 06:48:00,
2013-10-04 01:03:00,35.5,23.0,32.42,WNW,288,3.0,5.0,61,0.00,,,0.00,weatherlink.com 1.10,2013-10-04 07:03:00,
2013-10-04 01:18:00,35.4,23.0,32.42,NW,315,1.0,2.0,61,0.00,,,0.00,weatherlink.com 1.10,2013-10-04 07:18:00,
2013-10-04 01:33:00,35.2,22.0,32.43,NNE,19,0.0,3.0,60,0.00,,,0.00,weatherlink.com 1.10,2013-10-04 07:33:00,
2013-10-04 01:48:00,35.0,23.0,32.43,NW,326,0.0,4.0,61,0.00,,,0.00,weatherlink.com 1.10,2013-10-04 07:48:00,
2013-10-04 02:03:00,34.6,23.0,32.44,NW,325,4.0,5.0,63,0.00,,,0.00,weatherlink.com 1.10,2013-10-04 08:03:00,
2013-10-04 02:18:00,34.4,23.0,32.45,NW,324,4.0,5.0,63,0.00,,,0.00,weatherlink.com 1.10,2013-10-04 08:18:00,
2013-10-04 02:33:00,34.6,23.0,32.46,North,355,4.0,5.0,62,0.00,,,0.00,weatherlink.com 1.10,2013-10-04 08:33:00,
2013-10-04 02:48:00,34.5,23.0,32.46,NNW,339,5.0,6.0,62,0.00,,,0.00,weatherlink.com 1.10,2013-10-04 08:48:00,
2013-10-04 03:03:00,34.3,22.0,32.46,North,351,4.0,7.0,62,0.00,,,0.00,weatherlink.com 1.10,2013-10-04 09:03:00,
2013-10-04 03:18:00,34.3,22.0,32.46,NNW,342,6.0,8.0,62,0.00,,,0.00,weatherlink.com 1.10,2013-10-04 09:18:00,
2013-10-04 03:33:00,34.5,22.0,32.47,NNW,345,7.0,8.0,61,0.00,,,0.00,weatherlink.com 1.10,2013-10-04 09:33:00,
2013-10-04 03:48:00,34.2,22.0,32.47,North,355,7.0,8.0,61,0.00,,,0.00,weatherlink.com 1.10,2013-10-04 09:48:00,
2013-10-04 04:03:00,34.3,22.0,32.48,NNW,348,7.0,8.0,61,0.00,,,0.00,weatherlink.com 1.10,2013-10-04 10:03:00,
2013-10-04 04:18:00,34.3,22.0,32.48,North,355,8.0,8.0,60,0.00,,,0.00,weatherlink.com 1.10,2013-10-04 10:18:00,
2013-10-04 04:33:00,34.2,22.0,32.48,North,5,7.0,8.0,61,0.00,,,0.00,weatherlink.com 1.10,2013-10-04 10:33:00,
2013-10-04 04:48:00,34.2,22.0,32.49,North,9,6.0,8.0,61,0.00,,,0.00,weatherlink.com 1.10,2013-10-04 10:48:00,
2013-10-04 05:03:00,34.3,22.0,32.49,NNE,12,5.0,7.0,60,0.00,,,0.00,weatherlink.com 1.10,2013-10-04 11:03:00,
2013-10-04 05:18:00,34.1,21.0,32.49,North,5,6.0,7.0,60,0.00,,,0.00,weatherlink.com 1.10,2013-10-04 11:18:00,
2013-10-04 05:34:00,34.0,21.0,32.49,North,355,8.0,8.0,60,0.00,,,0.00,weatherlink.com 1.10,2013-10-04 11:34:00,
2013-10-04 05:49:00,34.2,21.0,32.49,North,350,7.0,9.0,60,0.00,,,0.00,weatherlink.com 1.10,2013-10-04 11:49:00,
2013-10-04 06:04:00,34.1,21.0,32.50,North,355,8.0,9.0,60,0.00,,,0.00,weatherlink.com 1.10,2013-10-04 12:04:00,
2013-10-04 06:19:00,34.2,21.0,32.50,North,5,6.0,8.0,60,0.00,,,0.00,weatherlink.com 1.10,2013-10-04 12:19:00,
2013-10-04 06:34:00,34.0,22.0,32.50,North,5,7.0,8.0,62,0.00,,,0.00,weatherlink.com 1.10,2013-10-04 12:34:00,
2013-10-04 06:49:00,33.9,22.0,32.50,NNE,26,5.0,7.0,61,0.00,,,0.00,weatherlink.com 1.10,2013-10-04 12:49:00,
2013-10-04 07:04:00,33.5,21.0,32.50,ENE,66,0.0,4.0,61,0.00,,,0.00,weatherlink.com 1.10,2013-10-04 13:04:00,
2013-10-04 07:19:00,33.6,21.0,32.50,NNE,17,5.0,5.0,61,0.00,,,0.00,weatherlink.com 1.10,2013-10-04 13:19:00,
2013-10-04 07:34:00,33.7,21.0,32.50,NE,53,0.0,5.0,61,0.00,,,0.00,weatherlink.com 1.10,2013-10-04 13:34:00,
2013-10-04 07:49:00,34.1,22.0,32.50,ENE,61,0.0,0.0,61,0.00,,,0.00,weatherlink.com 1.10,2013-10-04 13:49:00,
2013-10-04 08:04:00,33.4,22.0,32.50,ENE,61,0.0,0.0,62,0.00,,,0.00,weatherlink.com 1.10,2013-10-04 14:04:00,
2013-10-04 08:19:00,32.9,22.0,32.50,ENE,61,0.0,0.0,64,0.00,,,0.00,weatherlink.com 1.10,2013-10-04 14:19:00,
2013-10-04 08:34:00,34.0,22.0,32.50,ENE,61,0.0,0.0,62,0.00,,,0.00,weatherlink.com 1.10,2013-10-04 14:34:00,
2013-10-04 08:49:00,33.9,22.0,32.50,NW,311,0.0,0.0,62,0.00,,,0.00,weatherlink.com 1.10,2013-10-04 14:49:00,
2013-10-04 09:04:00,34.5,23.0,32.50,WSW,258,0.0,0.0,63,0.00,,,0.00,weatherlink.com 1.10,2013-10-04 15:04:00,
2013-10-04 09:19:00,34.8,24.0,32.50,SSE,156,0.0,0.0,64,0.00,,,0.00,weatherlink.com 1.10,2013-10-04 15:19:00,
2013-10-04 09:34:00,34.2,24.0,32.50,SE,132,4.0,5.0,67,0.00,,,0.00,weatherlink.com 1.10,2013-10-04 15:34:00,
2013-10-04 09:49:00,35.0,24.0,32.50,SSE,150,0.0,3.0,65,0.00,,,0.00,weatherlink.com 1.10,2013-10-04 15:49:00,
2013-10-04 10:04:00,33.8,24.0,32.50,WSW,239,0.0,0.0,68,0.00,,,0.00,weatherlink.com 1.10,2013-10-04 16:04:00,
2013-10-04 10:19:00,35.3,26.0,32.50,SE,137,2.0,5.0,68,0.00,,,0.00,weatherlink.com 1.10,2013-10-04 16:19:00,
2013-10-04 10:34:00,36.3,26.0,32.50,SE,144,1.0,6.0,67,0.00,,,0.00,weatherlink.com 1.10,2013-10-04 16:34:00,
2013-10-04 10:49:00,37.1,25.0,32.50,SSE,161,2.0,7.0,63,0.00,,,0.00,weatherlink.com 1.10,2013-10-04 16:49:00,
2013-10-04 11:04:00,37.3,25.0,32.50,SE,124,4.0,9.0,62,0.00,,,0.00,weatherlink.com 1.10,2013-10-04 17:04:00,
2013-10-04 11:20:00,37.6,25.0,32.50,SE,146,6.0,9.0,62,0.00,,,0.00,weatherlink.com 1.10,2013-10-04 17:20:00,
2013-10-04 11:35:00,38.3,26.0,32.50,SSE,154,2.0,8.0,61,0.00,,,0.00,weatherlink.com 1.10,2013-10-04 17:35:00,
2013-10-04 12:05:00,39.5,27.0,32.50,SE,144,5.0,7.0,61,0.00,,,0.00,weatherlink.com 1.10,2013-10-04 18:05:00,
2013-10-04 12:20:00,39.3,23.0,32.50,SSE,165,5.0,11.0,53,0.00,,,0.00,weatherlink.com 1.10,2013-10-04 18:20:00,
2013-10-04 12:35:00,40.4,24.0,32.50,South,184,6.0,11.0,53,0.00,,,0.00,weatherlink.com 1.10,2013-10-04 18:35:00,
2013-10-04 12:50:00,40.7,25.0,32.50,South,169,5.0,9.0,55,0.00,,,0.00,weatherlink.com 1.10,2013-10-04 18:50:00,
2013-10-04 13:05:00,42.3,25.0,32.50,South,174,4.0,9.0,51,0.00,,,0.00,weatherlink.com 1.10,2013-10-04 19:05:00,
2013-10-04 13:20:00,42.0,23.0,32.50,SSE,153,0.0,9.0,47,0.00,,,0.00,weatherlink.com 1.10,2013-10-04 19:20:00,
2013-10-04 13:35:00,41.1,23.0,32.50,NW,315,0.0,7.0,49,0.00,,,0.00,weatherlink.com 1.10,2013-10-04 19:35:00,
2013-10-04 13:50:00,41.9,23.0,32.50,SW,227,6.0,10.0,47,0.00,,,0.00,weatherlink.com 1.10,2013-10-04 19:50:00,
2013-10-04 14:05:00,41.3,24.0,32.50,West,262,14.0,15.0,50,0.00,,,0.00,weatherlink.com 1.10,2013-10-04 20:05:00,
2013-10-04 14:20:00,42.2,23.0,32.50,WSW,248,8.0,10.0,46,0.00,,,0.00,weatherlink.com 1.10,2013-10-04 20:20:00,
2013-10-04 14:35:00,42.9,23.0,32.49,WSW,240,2.0,11.0,45,0.00,,,0.00,weatherlink.com 1.10,2013-10-04 20:35:00,
2013-10-04 14:50:00,43.3,23.0,32.49,WSW,257,6.0,9.0,44,0.00,,,0.00,weatherlink.com 1.10,2013-10-04 20:50:00,
2013-10-04 15:05:00,44.3,22.0,32.48,West,274,10.0,12.0,42,0.00,,,0.00,weatherlink.com 1.10,2013-10-04 21:05:00,
2013-10-04 15:20:00,45.2,24.0,32.47,West,271,7.0,11.0,43,0.00,,,0.00,weatherlink.com 1.10,2013-10-04 21:20:00,
2013-10-04 15:35:00,44.7,23.0,32.47,West,264,5.0,14.0,43,0.00,,,0.00,weatherlink.com 1.10,2013-10-04 21:35:00,
2013-10-04 15:50:00,44.2,23.0,32.47,WNW,301,8.0,18.0,43,0.00,,,0.00,weatherlink.com 1.10,2013-10-04 21:50:00,
2013-10-04 16:05:00,45.0,24.0,32.47,WSW,251,0.0,16.0,44,0.00,,,0.00,weatherlink.com 1.10,2013-10-04 22:05:00,
2013-10-04 16:20:00,45.5,23.0,32.47,West,264,5.0,13.0,42,0.00,,,0.00,weatherlink.com 1.10,2013-10-04 22:20:00,
2013-10-04 16:35:00,45.3,24.0,32.46,WSW,248,6.0,13.0,43,0.00,,,0.00,weatherlink.com 1.10,2013-10-04 22:35:00,
2013-10-04 16:50:00,45.7,23.0,32.46,WSW,250,6.0,12.0,41,0.00,,,0.00,weatherlink.com 1.10,2013-10-04 22:50:00,
2013-10-04 17:05:00,46.5,25.0,32.45,SSE,168,1.0,7.0,43,0.00,,,0.00,weatherlink.com 1.10,2013-10-04 23:05:00,
2013-10-04 17:20:00,46.7,26.0,32.44,SSW,203,7.0,8.0,44,0.00,,,0.00,weatherlink.com 1.10,2013-10-04 23:20:00,
2013-10-04 17:35:00,46.5,25.0,32.44,WSW,244,7.0,9.0,44,0.00,,,0.00,weatherlink.com 1.10,2013-10-04 23:35:00,
2013-10-04 17:50:00,45.7,24.0,32.44,SSW,198,0.0,7.0,43,0.00,,,0.00,weatherlink.com 1.10,2013-10-04 23:50:00,
2013-10-04 18:05:00,45.7,24.0,32.43,SW,231,0.0,6.0,43,0.00,,,0.00,weatherlink.com 1.10,2013-10-05 00:05:00,
2013-10-04 18:20:00,45.9,25.0,32.43,SSW,207,0.0,5.0,44,0.00,,,0.00,weatherlink.com 1.10,2013-10-05 00:20:00,
2013-10-04 18:35:00,45.0,25.0,32.43,SW,218,0.0,5.0,46,0.00,,,0.00,weatherlink.com 1.10,2013-10-05 00:35:00,
2013-10-04 18:50:00,43.2,25.0,32.43,SW,216,0.0,3.0,49,0.00,,,0.00,weatherlink.com 1.10,2013-10-05 00:50:00,
2013-10-04 19:05:00,42.2,25.0,32.42,SW,215,0.0,0.0,51,0.00,,,0.00,weatherlink.com 1.10,2013-10-05 01:05:00,
2013-10-04 19:20:00,41.8,25.0,32.42,SSW,213,0.0,0.0,51,0.00,,,0.00,weatherlink.com 1.10,2013-10-05 01:20:00,
2013-10-04 19:35:00,42.0,24.0,32.42,SSW,213,0.0,0.0,50,0.00,,,0.00,weatherlink.com 1.10,2013-10-05 01:35:00,
2013-10-04 19:50:00,42.0,24.0,32.43,SSW,206,0.0,0.0,50,0.00,,,0.00,weatherlink.com 1.10,2013-10-05 01:50:00,
2013-10-04 20:05:00,41.6,23.0,32.43,SSW,207,0.0,0.0,48,0.00,,,0.00,weatherlink.com 1.10,2013-10-05 02:05:00,
2013-10-04 20:20:00,41.4,24.0,32.43,SSW,207,0.0,0.0,51,0.00,,,0.00,weatherlink.com 1.10,2013-10-05 02:20:00,
2013-10-04 20:35:00,41.1,24.0,32.44,SSW,207,0.0,0.0,52,0.00,,,0.00,weatherlink.com 1.10,2013-10-05 02:35:00,
2013-10-04 20:50:00,41.3,24.0,32.44,SSW,207,0.0,0.0,51,0.00,,,0.00,weatherlink.com 1.10,2013-10-05 02:50:00,
2013-10-04 21:05:00,41.4,24.0,32.44,South,169,0.0,0.0,50,0.00,,,0.00,weatherlink.com 1.10,2013-10-05 03:05:00,
2013-10-04 21:20:00,41.6,24.0,32.44,SE,146,0.0,0.0,49,0.00,,,0.00,weatherlink.com 1.10,2013-10-05 03:20:00,
2013-10-04 21:35:00,41.2,24.0,32.44,SE,134,0.0,0.0,50,0.00,,,0.00,weatherlink.com 1.10,2013-10-05 03:35:00,
2013-10-04 21:50:00,40.8,24.0,32.45,SE,134,0.0,0.0,51,0.00,,,0.00,weatherlink.com 1.10,2013-10-05 03:50:00,
2013-10-04 22:05:00,40.7,24.0,32.45,NW,325,0.0,0.0,51,0.00,,,0.00,weatherlink.com 1.10,2013-10-05 04:05:00,
2013-10-04 22:20:00,40.2,24.0,32.46,North,349,0.0,3.0,52,0.00,,,0.00,weatherlink.com 1.10,2013-10-05 04:20:00,
2013-10-04 22:35:00,40.1,24.0,32.46,NW,314,0.0,4.0,52,0.00,,,0.00,weatherlink.com 1.10,2013-10-05 04:35:00,
2013-10-04 22:50:00,39.7,24.0,32.46,NNW,329,4.0,5.0,53,0.00,,,0.00,weatherlink.com 1.10,2013-10-05 04:50:00,
2013-10-04 23:06:00,40.4,24.0,32.47,WNW,298,4.0,8.0,52,0.00,,,0.00,weatherlink.com 1.10,2013-10-05 05:06:00,
2013-10-04 23:21:00,39.8,24.0,32.46,NW,304,4.0,10.0,53,0.00,,,0.00,weatherlink.com 1.10,2013-10-05 05:21:00,
2013-10-04 23:36:00,39.3,24.0,32.46,NW,325,3.0,7.0,54,0.00,,,0.00,weatherlink.com 1.10,2013-10-05 05:36:00,
2013-10-04 23:51:00,38.5,23.0,32.46,South,178,0.0,4.0,55,0.00,,,0.00,weatherlink.com 1.10,2013-10-05 05:51:00,